Time;durP1;ratioP1;P1;durP2;ratioP2;P2;SDS_P1;SDS_P2;PMS_P1;PMS_P2;Temp;Humidity;BMP_temperature;BMP_pressure;BME280_temperature;BME280_humidity;BME280_pressure;Samples;Min_cycle;Max_cycle;Signal;HPM_P1;HPM_P2
2022/06/08 00:01:08;;;;;;;1.20;0.52;;;;;;;;;;5076121;28;20039;-82
2022/06/08 00:03:39;;;;;;;2.53;0.45;;;;;;;;;;5093123;28;20044;-82
2022/06/08 00:06:06;;;;;;;0.50;0.30;;;;;;;;;;5093241;28;20447;-82
2022/06/08 00:08:32;;;;;;;1.63;0.50;;;;;;;;;;5076107;28;20048;-82
2022/06/08 00:10:58;;;;;;;1.08;0.57;;;;;;;;;;5092706;28;20372;-82
2022/06/08 00:13:24;;;;;;;1.70;0.60;;;;;;;;;;5092847;28;20050;-82
2022/06/08 00:15:51;;;;;;;2.13;0.80;;;;;;;;;;5093952;28;20498;-82
2022/06/08 00:18:17;;;;;;;1.40;0.75;;;;;;;;;;5092927;28;20051;-82
2022/06/08 00:20:43;;;;;;;2.58;1.00;;;;;;;;;;5092525;28;20079;-82
2022/06/08 00:23:09;;;;;;;4.35;1.48;;;;;;;;;;5093978;28;20076;-81
2022/06/08 00:25:35;;;;;;;2.95;1.42;;;;;;;;;;5075495;28;20036;-81
2022/06/08 00:28:01;;;;;;;4.82;1.75;;;;;;;;;;5092234;28;20040;-82
2022/06/08 00:30:27;;;;;;;4.57;1.90;;;;;;;;;;5093957;28;20054;-81
2022/06/08 00:32:53;;;;;;;3.90;2.10;;;;;;;;;;5094042;28;20480;-82
2022/06/08 00:35:19;;;;;;;5.03;2.67;;;;;;;;;;5092260;28;20038;-82
2022/06/08 00:37:45;;;;;;;5.57;2.70;;;;;;;;;;5092822;28;20048;-82
2022/06/08 00:40:12;;;;;;;8.23;2.75;;;;;;;;;;5093748;28;20066;-82
2022/06/08 00:42:40;;;;;;;3.80;1.63;;;;;;;;;;5092509;28;20403;-82
2022/06/08 00:45:11;;;;;;;5.07;2.13;;;;;;;;;;5091930;28;20052;-81
2022/06/08 00:47:41;;;;;;;5.55;2.25;;;;;;;;;;5092178;28;20127;-82
2022/06/08 00:50:13;;;;;;;5.10;2.33;;;;;;;;;;5092027;28;20048;-81
2022/06/08 00:52:39;;;;;;;6.53;3.13;;;;;;;;;;5092597;28;20086;-81
2022/06/08 00:55:07;;;;;;;5.75;2.30;;;;;;;;;;5092012;28;20133;-81
2022/06/08 00:57:38;;;;;;;4.95;2.42;;;;;;;;;;5093677;28;20093;-82
2022/06/08 01:00:07;;;;;;;4.30;2.40;;;;;;;;;;5092515;28;20212;-82
2022/06/08 01:02:33;;;;;;;4.78;2.42;;;;;;;;;;5093300;28;20043;-82
2022/06/08 01:05:18;;;;;;;8.20;2.33;;;;;;;;;;5075415;28;20040;-82
2022/06/08 01:07:44;;;;;;;6.57;2.42;;;;;;;;;;5091912;28;20051;-82
2022/06/08 01:10:15;;;;;;;6.00;2.35;;;;;;;;;;5092042;28;20044;-81
2022/06/08 01:12:41;;;;;;;6.15;2.70;;;;;;;;;;5093189;28;20036;-82
2022/06/08 01:15:07;;;;;;;6.50;3.00;;;;;;;;;;5091906;28;20046;-82
2022/06/08 01:17:33;;;;;;;6.43;3.17;;;;;;;;;;5091947;28;20044;-82
2022/06/08 01:19:59;;;;;;;8.25;2.58;;;;;;;;;;5093288;28;20481;-82
2022/06/08 01:22:25;;;;;;;7.57;3.28;;;;;;;;;;5074905;28;20083;-82
2022/06/08 01:24:52;;;;;;;5.60;2.95;;;;;;;;;;5091818;28;20443;-82
2022/06/08 01:27:18;;;;;;;5.15;2.88;;;;;;;;;;5091657;28;20044;-82
2022/06/08 01:29:56;;;;;;;7.68;2.92;;;;;;;;;;5092043;28;20039;-82
2022/06/08 01:32:31;;;;;;;6.60;2.97;;;;;;;;;;5091739;28;20040;-82
2022/06/08 01:35:06;;;;;;;5.70;2.90;;;;;;;;;;5091869;28;20050;-82
2022/06/08 01:37:39;;;;;;;5.93;3.22;;;;;;;;;;5091377;28;20483;-82
2022/06/08 01:40:12;;;;;;;5.55;3.22;;;;;;;;;;5094830;28;20044;-82
2022/06/08 01:42:38;;;;;;;8.55;3.00;;;;;;;;;;5095866;28;20051;-82
2022/06/08 01:48:13;;;;;;;6.28;3.22;;;;;;;;;;5095490;28;20044;-82
2022/06/08 01:50:40;;;;;;;5.57;2.97;;;;;;;;;;5095544;28;20036;-81
2022/06/08 01:53:17;;;;;;;6.68;3.33;;;;;;;;;;5095663;28;20503;-82
2022/06/08 01:55:50;;;;;;;6.07;3.60;;;;;;;;;;5096859;28;20050;-82
2022/06/08 01:58:22;;;;;;;8.55;4.47;;;;;;;;;;5095697;28;20040;-82
2022/06/08 02:01:11;;;;;;;7.05;4.25;;;;;;;;;;5096563;28;20040;-82
2022/06/08 02:03:41;;;;;;;8.23;4.35;;;;;;;;;;5095447;28;20493;-81
2022/06/08 02:06:11;;;;;;;9.07;4.07;;;;;;;;;;5095216;28;20062;-82
2022/06/08 02:08:37;;;;;;;8.40;3.40;;;;;;;;;;5095295;28;20052;-82
2022/06/08 02:11:20;;;;;;;6.63;2.90;;;;;;;;;;5078181;28;20032;-82
2022/06/08 02:13:46;;;;;;;5.38;2.78;;;;;;;;;;5095321;28;20093;-82
2022/06/08 02:16:16;;;;;;;5.13;2.58;;;;;;;;;;5095141;28;20040;-82
2022/06/08 02:18:54;;;;;;;7.20;3.13;;;;;;;;;;5095586;28;20040;-82
2022/06/08 02:21:56;;;;;;;6.30;3.10;;;;;;;;;;5095252;28;20498;-82
2022/06/08 02:24:25;;;;;;;5.25;3.00;;;;;;;;;;5017755;28;20392;-82
2022/06/08 02:27:00;;;;;;;5.47;2.60;;;;;;;;;;5080328;28;20056;-82
2022/06/08 02:29:30;;;;;;;7.72;3.08;;;;;;;;;;5096254;28;20041;-82
2022/06/08 02:32:02;;;;;;;6.10;4.07;;;;;;;;;;5077768;28;20089;-82
2022/06/08 02:34:31;;;;;;;7.13;3.63;;;;;;;;;;5095068;28;20044;-82
2022/06/08 02:37:07;;;;;;;9.70;4.25;;;;;;;;;;5094710;28;20073;-81
2022/06/08 02:39:39;;;;;;;8.68;4.85;;;;;;;;;;5094845;28;20032;-82
2022/06/08 02:42:25;;;;;;;7.82;4.38;;;;;;;;;;5094556;28;20044;-81
2022/06/08 02:44:53;;;;;;;9.02;5.85;;;;;;;;;;5077531;28;20052;-82
2022/06/08 02:47:31;;;;;;;9.88;6.05;;;;;;;;;;5095606;28;20040;-82
2022/06/08 02:50:08;;;;;;;10.07;5.82;;;;;;;;;;5094376;28;20044;-82
2022/06/08 02:52:36;;;;;;;10.98;5.63;;;;;;;;;;5095584;28;20044;-82
2022/06/08 02:55:03;;;;;;;10.07;6.68;;;;;;;;;;5094768;28;20063;-82
2022/06/08 02:57:30;;;;;;;13.70;7.05;;;;;;;;;;5094239;28;20462;-82
2022/06/08 03:00:06;;;;;;;11.40;6.85;;;;;;;;;;5095647;28;20040;-82
2022/06/08 03:02:35;;;;;;;11.07;6.93;;;;;;;;;;5095475;28;20075;-82
2022/06/08 03:05:08;;;;;;;10.07;7.68;;;;;;;;;;5094257;28;20040;-82
2022/06/08 03:07:40;;;;;;;12.98;7.28;;;;;;;;;;5094009;28;20321;-82
2022/06/08 03:10:08;;;;;;;13.13;7.13;;;;;;;;;;5094240;28;20036;-82
2022/06/08 03:12:55;;;;;;;11.07;7.10;;;;;;;;;;5094154;28;20057;-81
2022/06/08 03:15:22;;;;;;;10.57;7.00;;;;;;;;;;5094142;28;20364;-82
2022/06/08 03:17:50;;;;;;;11.35;7.20;;;;;;;;;;5095388;28;20455;-82
2022/06/08 03:20:17;;;;;;;15.25;7.70;;;;;;;;;;5094033;28;20052;-81
2022/06/08 03:22:43;;;;;;;12.13;7.18;;;;;;;;;;5095097;28;20040;-82
2022/06/08 03:25:09;;;;;;;12.68;7.57;;;;;;;;;;5094040;28;20054;-81
2022/06/08 03:27:37;;;;;;;14.13;8.05;;;;;;;;;;5093837;28;20249;-82
2022/06/08 03:30:04;;;;;;;12.25;7.93;;;;;;;;;;5094034;28;20044;-81
2022/06/08 03:32:30;;;;;;;10.82;6.93;;;;;;;;;;5077029;28;20071;-82
2022/06/08 03:34:56;;;;;;;12.77;7.20;;;;;;;;;;5093659;28;20484;-81
2022/06/08 03:37:22;;;;;;;11.10;6.18;;;;;;;;;;5094717;28;20040;-81
2022/06/08 03:39:48;;;;;;;11.68;5.93;;;;;;;;;;5093840;28;20070;-81
2022/06/08 03:42:14;;;;;;;8.60;5.60;;;;;;;;;;5093399;28;20119;-82
2022/06/08 03:44:40;;;;;;;9.52;5.50;;;;;;;;;;5093348;28;20063;-82
2022/06/08 03:47:11;;;;;;;10.60;6.82;;;;;;;;;;5093188;28;20055;-82
2022/06/08 03:49:37;;;;;;;12.55;7.30;;;;;;;;;;5095043;28;20173;-82
2022/06/08 03:52:07;;;;;;;11.32;7.07;;;;;;;;;;5093148;28;20075;-82
2022/06/08 03:54:36;;;;;;;11.13;6.68;;;;;;;;;;5094850;28;20391;-82
2022/06/08 03:57:04;;;;;;;11.23;7.63;;;;;;;;;;5093020;28;20047;-81
2022/06/08 03:59:31;;;;;;;12.70;8.35;;;;;;;;;;5094649;28;20039;-82
2022/06/08 04:01:57;;;;;;;16.02;9.30;;;;;;;;;;5093529;28;20093;-82
2022/06/08 04:04:23;;;;;;;12.57;8.70;;;;;;;;;;5093367;28;20040;-82
2022/06/08 04:06:49;;;;;;;13.10;8.23;;;;;;;;;;5092968;28;20123;-82
2022/06/08 04:09:15;;;;;;;11.43;8.07;;;;;;;;;;5092829;28;20079;-82
2022/06/08 04:11:41;;;;;;;12.00;6.82;;;;;;;;;;5093096;28;20505;-82
2022/06/08 04:14:07;;;;;;;8.43;6.43;;;;;;;;;;5092733;28;20123;-82
2022/06/08 04:16:33;;;;;;;10.48;6.25;;;;;;;;;;5092932;28;20040;-82
2022/06/08 04:19:00;;;;;;;12.48;6.93;;;;;;;;;;5092658;28;20055;-82
2022/06/08 04:21:26;;;;;;;10.95;6.57;;;;;;;;;;5092801;28;20048;-82
2022/06/08 04:23:52;;;;;;;15.02;6.97;;;;;;;;;;5093775;28;20498;-82
2022/06/08 04:26:19;;;;;;;11.45;7.60;;;;;;;;;;5092735;28;20043;-82
2022/06/08 04:28:45;;;;;;;11.95;7.20;;;;;;;;;;5092441;28;20051;-82
2022/06/08 04:31:12;;;;;;;12.85;7.45;;;;;;;;;;5075863;28;20514;-82
2022/06/08 04:33:38;;;;;;;11.10;7.30;;;;;;;;;;5092347;28;20048;-82
2022/06/08 04:36:05;;;;;;;10.77;7.82;;;;;;;;;;5092662;28;20105;-82
2022/06/08 04:38:31;;;;;;;13.98;8.30;;;;;;;;;;5093773;28;20055;-82
2022/06/08 04:40:57;;;;;;;16.00;9.35;;;;;;;;;;5092664;28;20130;-82
2022/06/08 04:43:23;;;;;;;14.15;10.02;;;;;;;;;;5092034;28;20503;-82
2022/06/08 04:45:49;;;;;;;14.90;10.60;;;;;;;;;;5092589;28;20052;-82
2022/06/08 04:48:16;;;;;;;15.52;10.75;;;;;;;;;;5093253;28;20048;-82
2022/06/08 04:50:43;;;;;;;14.75;10.18;;;;;;;;;;5092274;28;20547;-82
2022/06/08 04:53:09;;;;;;;15.73;11.27;;;;;;;;;;5091971;28;20076;-82
2022/06/08 04:55:35;;;;;;;15.45;11.38;;;;;;;;;;5092272;28;20115;-83
2022/06/08 04:58:01;;;;;;;17.20;10.77;;;;;;;;;;5091359;28;20130;-84
2022/06/08 05:00:27;;;;;;;15.77;11.30;;;;;;;;;;5071739;28;20044;-82
2022/06/08 05:02:54;;;;;;;17.10;11.77;;;;;;;;;;5071232;28;20048;-82
2022/06/08 05:05:37;;;;;;;18.63;11.60;;;;;;;;;;5071417;28;20575;-82
2022/06/08 05:08:04;;;;;;;15.38;11.43;;;;;;;;;;5071194;28;20052;-82
2022/06/08 05:10:31;;;;;;;18.08;12.75;;;;;;;;;;5071698;28;20063;-82
2022/06/08 05:12:57;;;;;;;16.27;12.15;;;;;;;;;;5091058;28;20044;-82
2022/06/08 05:15:26;;;;;;;17.98;12.98;;;;;;;;;;5092637;28;20083;-82
2022/06/08 05:17:52;;;;;;;22.25;13.07;;;;;;;;;;5091337;28;20040;-82
2022/06/08 05:20:18;;;;;;;19.08;13.48;;;;;;;;;;5091745;28;20424;-82
2022/06/08 05:22:46;;;;;;;20.98;12.75;;;;;;;;;;5092470;28;20129;-82
2022/06/08 05:25:14;;;;;;;17.77;13.32;;;;;;;;;;5091439;28;20502;-82
2022/06/08 05:27:40;;;;;;;19.45;13.30;;;;;;;;;;5091374;28;20047;-82
2022/06/08 05:30:09;;;;;;;18.95;13.63;;;;;;;;;;5090996;28;20035;-81
2022/06/08 05:32:35;;;;;;;19.63;14.38;;;;;;;;;;5091478;28;20044;-82
2022/06/08 05:35:01;;;;;;;18.77;14.07;;;;;;;;;;5092327;28;20497;-82
2022/06/08 05:37:27;;;;;;;20.10;14.23;;;;;;;;;;5091561;28;20048;-83
2022/06/08 05:39:53;;;;;;;19.73;14.00;;;;;;;;;;5074040;28;20474;-84
2022/06/08 05:42:19;;;;;;;21.42;15.07;;;;;;;;;;5091297;28;20127;-83
2022/06/08 05:44:45;;;;;;;17.92;13.57;;;;;;;;;;5090563;28;20052;-82
2022/06/08 05:47:12;;;;;;;24.77;15.25;;;;;;;;;;5092512;28;20433;-83
2022/06/08 05:49:39;;;;;;;22.45;14.48;;;;;;;;;;5091039;28;20407;-82
2022/06/08 05:52:07;;;;;;;20.88;15.95;;;;;;;;;;5091288;28;20051;-82
2022/06/08 05:54:33;;;;;;;21.85;15.20;;;;;;;;;;5091408;28;20475;-82
2022/06/08 05:56:59;;;;;;;24.10;15.00;;;;;;;;;;5091051;28;20046;-82
2022/06/08 05:59:25;;;;;;;23.45;15.68;;;;;;;;;;5092124;28;20070;-83
2022/06/08 06:01:51;;;;;;;21.40;16.17;;;;;;;;;;5091183;28;20047;-82
2022/06/08 06:04:18;;;;;;;24.23;15.43;;;;;;;;;;5090655;28;20112;-82
2022/06/08 06:06:46;;;;;;;22.13;15.60;;;;;;;;;;5090995;28;20076;-82
2022/06/08 06:09:13;;;;;;;21.95;15.50;;;;;;;;;;5073796;28;20387;-82
2022/06/08 06:11:39;;;;;;;23.30;16.20;;;;;;;;;;5074319;28;20134;-82
2022/06/08 06:14:05;;;;;;;23.42;15.38;;;;;;;;;;5091098;28;20056;-83
2022/06/08 06:16:31;;;;;;;22.10;16.25;;;;;;;;;;5090878;28;20352;-82
2022/06/08 06:18:58;;;;;;;22.80;16.27;;;;;;;;;;5090811;28;20051;-82
2022/06/08 06:21:25;;;;;;;25.90;16.35;;;;;;;;;;5073682;28;20043;-82
2022/06/08 06:23:52;;;;;;;22.38;16.75;;;;;;;;;;5090905;28;20044;-82
2022/06/08 06:26:18;;;;;;;22.25;15.75;;;;;;;;;;5093891;28;20052;-82
2022/06/08 06:28:44;;;;;;;21.67;16.15;;;;;;;;;;5094336;28;20131;-82
2022/06/08 06:31:21;;;;;;;22.77;16.08;;;;;;;;;;5094300;28;20078;-82
2022/06/08 06:33:47;;;;;;;23.17;16.33;;;;;;;;;;5094614;28;20048;-82
2022/06/08 06:36:13;;;;;;;22.13;16.77;;;;;;;;;;5094596;28;20117;-82
2022/06/08 06:38:39;;;;;;;21.10;15.90;;;;;;;;;;5095384;28;20519;-82
2022/06/08 06:41:05;;;;;;;24.15;15.98;;;;;;;;;;5094571;28;20048;-82
2022/06/08 06:43:31;;;;;;;21.67;16.20;;;;;;;;;;5095535;28;20064;-82
2022/06/08 06:45:57;;;;;;;23.33;17.15;;;;;;;;;;5094104;28;20051;-82
2022/06/08 06:48:25;;;;;;;24.95;16.80;;;;;;;;;;5094069;28;20044;-82
2022/06/08 06:50:51;;;;;;;22.98;16.25;;;;;;;;;;5094198;28;20478;-82
2022/06/08 06:53:17;;;;;;;21.80;15.20;;;;;;;;;;5093988;28;20119;-82
2022/06/08 06:55:44;;;;;;;19.27;16.13;;;;;;;;;;5093677;28;20498;-82
2022/06/08 06:58:10;;;;;;;21.20;15.63;;;;;;;;;;5077001;28;20040;-82
2022/06/08 07:00:36;;;;;;;22.98;16.98;;;;;;;;;;5093963;28;20052;-82
2022/06/08 07:03:02;;;;;;;20.65;15.32;;;;;;;;;;5094041;28;20056;-82
2022/06/08 07:05:34;;;;;;;19.95;14.45;;;;;;;;;;5094870;28;20051;-82
2022/06/08 07:08:00;;;;;;;21.05;13.35;;;;;;;;;;5093936;28;20059;-82
2022/06/08 07:10:26;;;;;;;16.77;13.13;;;;;;;;;;5094583;28;20040;-81
2022/06/08 07:12:52;;;;;;;16.92;12.65;;;;;;;;;;5093638;28;20459;-82
2022/06/08 07:15:19;;;;;;;17.55;13.50;;;;;;;;;;5093644;28;20119;-82
2022/06/08 07:17:46;;;;;;;19.33;12.93;;;;;;;;;;5093889;28;20122;-82
2022/06/08 07:20:12;;;;;;;17.83;12.77;;;;;;;;;;5076402;28;20040;-82
2022/06/08 07:22:38;;;;;;;18.17;12.43;;;;;;;;;;5093459;28;20055;-82
2022/06/08 07:25:05;;;;;;;16.67;11.07;;;;;;;;;;5094669;28;20075;-82
2022/06/08 07:27:31;;;;;;;14.20;9.15;;;;;;;;;;5093228;28;20052;-82
2022/06/08 07:29:57;;;;;;;12.85;8.73;;;;;;;;;;5093464;28;20441;-81
2022/06/08 07:32:23;;;;;;;12.00;8.23;;;;;;;;;;5093589;28;20036;-82
2022/06/08 07:34:49;;;;;;;13.70;8.45;;;;;;;;;;5093199;28;20464;-82
2022/06/08 07:37:15;;;;;;;12.35;8.48;;;;;;;;;;5091696;28;20044;-82
2022/06/08 07:39:41;;;;;;;11.45;8.00;;;;;;;;;;5075897;28;20044;-82
2022/06/08 07:42:08;;;;;;;11.93;7.85;;;;;;;;;;5092868;28;20039;-82
2022/06/08 07:44:34;;;;;;;12.35;7.85;;;;;;;;;;5093126;28;20135;-82
2022/06/08 07:46:59;;;;;;;10.85;7.00;;;;;;;;;;5093423;28;20127;-85
2022/06/08 07:49:39;;;;;;;10.20;7.60;;;;;;;;;;5093243;28;20473;-82
2022/06/08 07:52:05;;;;;;;11.70;7.88;;;;;;;;;;5093670;28;20052;-82
2022/06/08 07:54:31;;;;;;;10.82;7.28;;;;;;;;;;5093134;28;20040;-82
2022/06/08 07:56:57;;;;;;;9.95;6.57;;;;;;;;;;5093141;28;20044;-82
2022/06/08 07:59:24;;;;;;;9.32;5.53;;;;;;;;;;5094298;28;20200;-83
2022/06/08 08:01:52;;;;;;;8.40;5.90;;;;;;;;;;5093322;28;20072;-82
2022/06/08 08:04:18;;;;;;;8.60;5.78;;;;;;;;;;5093151;28;20516;-82
2022/06/08 08:06:44;;;;;;;11.88;5.60;;;;;;;;;;5094388;28;20040;-82
2022/06/08 08:09:14;;;;;;;10.05;5.65;;;;;;;;;;5092829;28;20395;-82
2022/06/08 08:11:41;;;;;;;8.52;5.10;;;;;;;;;;5093163;28;20089;-82
2022/06/08 08:14:07;;;;;;;8.85;4.40;;;;;;;;;;5093098;28;20040;-83
2022/06/08 08:16:33;;;;;;;6.82;4.00;;;;;;;;;;5092579;28;20123;-84
2022/06/08 08:18:59;;;;;;;8.02;4.20;;;;;;;;;;5092883;28;20501;-82
2022/06/08 08:21:25;;;;;;;7.53;3.90;;;;;;;;;;5087521;28;20040;-83
2022/06/08 08:23:51;;;;;;;7.10;4.00;;;;;;;;;;5094189;28;20101;-83
2022/06/08 08:26:17;;;;;;;6.43;3.70;;;;;;;;;;5092462;28;20055;-82
2022/06/08 08:28:43;;;;;;;6.68;3.45;;;;;;;;;;5093954;28;20036;-83
2022/06/08 08:31:09;;;;;;;7.03;3.50;;;;;;;;;;5092654;28;20036;-82
2022/06/08 08:33:36;;;;;;;5.90;3.50;;;;;;;;;;5092550;28;20059;-83
2022/06/08 08:36:02;;;;;;;6.72;3.10;;;;;;;;;;5092289;28;20043;-82
2022/06/08 08:38:28;;;;;;;5.90;3.20;;;;;;;;;;5092736;28;20411;-84
2022/06/08 08:40:59;;;;;;;6.45;3.13;;;;;;;;;;5092233;28;20044;-83
2022/06/08 08:43:26;;;;;;;4.72;2.70;;;;;;;;;;5091432;28;20473;-83
2022/06/08 08:46:19;;;;;;;7.75;3.72;;;;;;;;;;5092204;28;20164;-83
2022/06/08 08:48:53;;;;;;;6.03;3.13;;;;;;;;;;5092980;28;20434;-83
2022/06/08 08:51:25;;;;;;;6.10;2.70;;;;;;;;;;5093362;28;20040;-84
2022/06/08 08:54:14;;;;;;;7.30;2.60;;;;;;;;;;5092495;28;20485;-83
2022/06/08 08:56:42;;;;;;;6.15;2.15;;;;;;;;;;5089224;28;20092;-84
2022/06/08 08:59:19;;;;;;;7.55;2.63;;;;;;;;;;5074951;28;20048;-84
2022/06/08 09:01:47;;;;;;;5.60;2.40;;;;;;;;;;5090921;28;20051;-83
2022/06/08 09:04:26;;;;;;;5.20;2.40;;;;;;;;;;5092374;28;20434;-83
2022/06/08 09:06:52;;;;;;;4.63;1.85;;;;;;;;;;5090780;28;20066;-84
2022/06/08 09:09:21;;;;;;;4.70;1.67;;;;;;;;;;5074993;28;20073;-83
2022/06/08 09:11:47;;;;;;;5.57;1.67;;;;;;;;;;5091685;28;20044;-84
2022/06/08 09:14:24;;;;;;;9.55;1.98;;;;;;;;;;5092155;28;20142;-83
2022/06/08 09:16:51;;;;;;;5.72;2.33;;;;;;;;;;5091589;28;20036;-83
2022/06/08 09:19:23;;;;;;;4.65;1.80;;;;;;;;;;5091664;28;20078;-84
2022/06/08 09:21:50;;;;;;;5.03;2.22;;;;;;;;;;5092591;28;20437;-86
2022/06/08 09:24:16;;;;;;;4.35;1.85;;;;;;;;;;5091685;28;20032;-85
2022/06/08 09:26:43;;;;;;;6.82;2.20;;;;;;;;;;5091637;28;20479;-85
2022/06/08 09:29:09;;;;;;;5.15;2.10;;;;;;;;;;5092808;28;20054;-85
2022/06/08 09:31:35;;;;;;;5.10;2.10;;;;;;;;;;5091536;28;20360;-83
2022/06/08 09:34:34;;;;;;;6.38;2.72;;;;;;;;;;5091739;28;20039;-83
2022/06/08 09:37:10;;;;;;;4.68;2.22;;;;;;;;;;5047368;28;20055;-82
2022/06/08 09:39:36;;;;;;;7.78;2.45;;;;;;;;;;5091479;28;20066;-83
2022/06/08 09:42:07;;;;;;;6.22;2.85;;;;;;;;;;5091146;28;20040;-83
2022/06/08 09:44:40;;;;;;;7.25;2.85;;;;;;;;;;5091241;28;20052;-82
2022/06/08 09:53:01;;;;;;;5.65;2.60;;;;;;;;;;5092742;28;20076;-82
2022/06/08 09:55:31;;;;;;;5.88;2.83;;;;;;;;;;5091477;28;20043;-82
2022/06/08 09:58:02;;;;;;;5.47;3.03;;;;;;;;;;5073814;28;20055;-82
2022/06/08 10:00:40;;;;;;;5.70;2.75;;;;;;;;;;5093393;28;20135;-82
2022/06/08 10:03:12;;;;;;;6.13;2.95;;;;;;;;;;5092434;28;20422;-82
2022/06/08 10:05:38;;;;;;;5.50;3.80;;;;;;;;;;5080914;28;20067;-82
2022/06/08 10:08:23;;;;;;;6.07;3.38;;;;;;;;;;5058218;28;20048;-82
2022/06/08 10:10:53;;;;;;;5.95;3.25;;;;;;;;;;5074801;28;20492;-82
2022/06/08 10:13:35;;;;;;;6.75;3.25;;;;;;;;;;5074867;28;20464;-81
2022/06/08 10:16:21;;;;;;;6.47;3.00;;;;;;;;;;5073438;28;20041;-81
2022/06/08 10:18:53;;;;;;;6.30;3.20;;;;;;;;;;5075171;28;20041;-84
2022/06/08 10:21:29;;;;;;;5.45;2.80;;;;;;;;;;5073496;28;20507;-82
2022/06/08 10:23:58;;;;;;;5.85;3.35;;;;;;;;;;5075071;28;20048;-85
2022/06/08 10:26:34;;;;;;;6.53;3.83;;;;;;;;;;5074619;28;20490;-82
2022/06/08 10:29:12;;;;;;;5.85;3.85;;;;;;;;;;5074770;28;20483;-82
2022/06/08 10:31:44;;;;;;;7.03;3.72;;;;;;;;;;5074688;28;20495;-82
2022/06/08 10:34:21;;;;;;;7.38;4.55;;;;;;;;;;5074600;28;20037;-85
2022/06/08 10:36:49;;;;;;;6.18;3.92;;;;;;;;;;5074228;28;20040;-82
2022/06/08 10:39:15;;;;;;;8.18;3.92;;;;;;;;;;5057849;28;20113;-81
2022/06/08 10:44:48;;;;;;;5.90;3.63;;;;;;;;;;5075453;28;20052;-82
2022/06/08 10:47:14;;;;;;;5.85;3.28;;;;;;;;;;5074431;28;20114;-82
2022/06/08 10:49:39;;;;;;;6.35;3.25;;;;;;;;;;5074211;28;20048;-82
2022/06/08 10:52:13;;;;;;;5.35;2.97;;;;;;;;;;5074068;28;20079;-81
2022/06/08 10:55:13;;;;;;;6.82;3.17;;;;;;;;;;5074232;28;20047;-81
2022/06/08 10:57:35;;;;;;;6.43;3.10;;;;;;;;;;5073032;28;20041;-81
2022/06/08 11:00:19;;;;;;;7.03;3.17;;;;;;;;;;5074084;28;20043;-81
2022/06/08 11:02:51;;;;;;;6.90;3.45;;;;;;;;;;5075153;28;20041;-81
2022/06/08 11:05:36;;;;;;;6.10;2.83;;;;;;;;;;5074014;28;20360;-81
2022/06/08 11:08:04;;;;;;;5.45;3.15;;;;;;;;;;5073750;28;20105;-81
2022/06/08 11:10:55;;;;;;;6.95;2.88;;;;;;;;;;5073648;28;20052;-88
2022/06/08 11:13:24;;;;;;;7.88;2.88;;;;;;;;;;5073726;28;20040;-82
2022/06/08 11:15:56;;;;;;;4.47;2.15;;;;;;;;;;5073668;28;20049;-82
2022/06/08 11:18:25;;;;;;;5.78;2.10;;;;;;;;;;5073807;28;20047;-82
2022/06/08 11:21:10;;;;;;;5.68;2.33;;;;;;;;;;5073658;28;20098;-82
2022/06/08 11:23:41;;;;;;;6.60;2.95;;;;;;;;;;5073590;28;20044;-83
2022/06/08 11:26:06;;;;;;;4.68;2.25;;;;;;;;;;5073474;28;20098;-82
2022/06/08 11:28:34;;;;;;;9.18;2.70;;;;;;;;;;5074752;28;20036;-82
2022/06/08 11:31:04;;;;;;;5.78;2.45;;;;;;;;;;5073415;28;20051;-82
2022/06/08 11:33:50;;;;;;;6.72;3.08;;;;;;;;;;5072201;28;20050;-82
2022/06/08 11:36:40;;;;;;;5.63;2.67;;;;;;;;;;5074698;28;20045;-82
2022/06/08 11:39:36;;;;;;;5.68;2.17;;;;;;;;;;5056821;28;20040;-82
2022/06/08 11:42:22;;;;;;;8.10;3.22;;;;;;;;;;5037620;28;20054;-82
2022/06/08 11:44:57;;;;;;;6.25;2.58;;;;;;;;;;5073043;28;20094;-82
2022/06/08 11:47:34;;;;;;;5.95;2.40;;;;;;;;;;5074318;28;20036;-82
2022/06/08 11:50:05;;;;;;;6.97;2.35;;;;;;;;;;5073120;28;20401;-83
2022/06/08 11:52:33;;;;;;;7.68;2.72;;;;;;;;;;5072635;28;20079;-82
2022/06/08 11:55:05;;;;;;;7.60;2.25;;;;;;;;;;5072984;28;20047;-82
2022/06/08 11:57:32;;;;;;;7.18;2.55;;;;;;;;;;5073177;28;20045;-82
2022/06/08 11:59:59;;;;;;;8.02;2.70;;;;;;;;;;5071864;28;20475;-82
2022/06/08 12:02:27;;;;;;;6.10;2.58;;;;;;;;;;5072668;28;20036;-82
2022/06/08 12:04:55;;;;;;;5.90;2.38;;;;;;;;;;5073010;28;20404;-83
2022/06/08 12:07:38;;;;;;;6.65;2.60;;;;;;;;;;5072607;28;20457;-82
2022/06/08 12:10:06;;;;;;;6.43;2.40;;;;;;;;;;5072868;28;20094;-82
2022/06/08 12:12:32;;;;;;;6.30;2.83;;;;;;;;;;5072441;28;20036;-82
2022/06/08 12:15:20;;;;;;;8.02;2.90;;;;;;;;;;5070230;28;20136;-83
2022/06/08 12:17:46;;;;;;;5.50;3.45;;;;;;;;;;5059920;28;20062;-81
2022/06/08 12:20:34;;;;;;;9.40;5.05;;;;;;;;;;5055772;28;20083;-82
2022/06/08 12:23:01;;;;;;;15.93;9.13;;;;;;;;;;5054959;28;20040;-83
2022/06/08 12:25:28;;;;;;;15.38;8.55;;;;;;;;;;5072290;28;20369;-83
2022/06/08 12:27:57;;;;;;;9.23;6.57;;;;;;;;;;5072103;28;20554;-85
2022/06/08 12:30:29;;;;;;;8.82;3.80;;;;;;;;;;5055679;28;20130;-84
2022/06/08 12:32:55;;;;;;;5.32;2.00;;;;;;;;;;5071983;28;20046;-85
2022/06/08 12:35:21;;;;;;;5.20;1.30;;;;;;;;;;5072494;28;20419;-85
2022/06/08 12:37:48;;;;;;;3.67;0.85;;;;;;;;;;5071953;28;20045;-86
2022/06/08 12:40:17;;;;;;;4.65;1.10;;;;;;;;;;5055803;28;20364;-86
2022/06/08 12:42:51;;;;;;;3.17;1.02;;;;;;;;;;5071918;28;20044;-85
2022/06/08 12:45:37;;;;;;;4.82;1.08;;;;;;;;;;5071845;28;20059;-84
2022/06/08 12:48:23;;;;;;;3.95;0.80;;;;;;;;;;5055084;28;20053;-85
2022/06/08 12:50:49;;;;;;;5.40;1.38;;;;;;;;;;5072275;28;20110;-85
2022/06/08 12:53:16;;;;;;;4.88;1.17;;;;;;;;;;5071909;28;20059;-85
2022/06/08 12:55:42;;;;;;;5.15;1.25;;;;;;;;;;5071788;28;20048;-85
2022/06/08 12:58:08;;;;;;;7.70;1.40;;;;;;;;;;5071582;28;20044;-86
2022/06/08 13:00:36;;;;;;;5.28;1.33;;;;;;;;;;5072042;28;20044;-85
2022/06/08 13:03:10;;;;;;;4.22;1.25;;;;;;;;;;5071699;28;20121;-85
2022/06/08 13:05:36;;;;;;;5.25;1.52;;;;;;;;;;5072433;28;20434;-85
2022/06/08 13:08:03;;;;;;;9.02;1.48;;;;;;;;;;5092113;28;20148;-85
2022/06/08 13:10:31;;;;;;;6.13;1.70;;;;;;;;;;5075288;28;20035;-86
2022/06/08 13:13:03;;;;;;;5.88;1.58;;;;;;;;;;5091991;28;20040;-85
2022/06/08 13:15:32;;;;;;;7.80;1.52;;;;;;;;;;5091845;28;20044;-86
2022/06/08 13:17:59;;;;;;;6.97;1.60;;;;;;;;;;5091509;28;20150;-86
2022/06/08 13:20:27;;;;;;;4.63;1.48;;;;;;;;;;5089425;28;20055;-85
2022/06/08 13:22:53;;;;;;;7.28;1.70;;;;;;;;;;5088700;28;20093;-86
2022/06/08 13:25:20;;;;;;;5.13;1.45;;;;;;;;;;5091807;28;20443;-85
2022/06/08 13:27:48;;;;;;;8.25;1.83;;;;;;;;;;5091679;28;20094;-85
2022/06/08 13:30:25;;;;;;;5.55;1.50;;;;;;;;;;5091659;28;20091;-85
2022/06/08 13:32:51;;;;;;;7.30;1.80;;;;;;;;;;5091686;28;20513;-86
2022/06/08 13:35:18;;;;;;;5.45;2.08;;;;;;;;;;5091395;28;20040;-86
2022/06/08 13:37:45;;;;;;;6.03;1.90;;;;;;;;;;5091411;28;20079;-85
2022/06/08 13:40:13;;;;;;;8.45;2.00;;;;;;;;;;5091605;28;20040;-85
2022/06/08 13:42:40;;;;;;;6.60;1.85;;;;;;;;;;5092769;28;20055;-84
2022/06/08 13:45:07;;;;;;;8.82;2.28;;;;;;;;;;5091262;28;20044;-85
2022/06/08 13:47:35;;;;;;;7.18;2.13;;;;;;;;;;5091618;28;20036;-85
2022/06/08 13:50:16;;;;;;;6.07;2.28;;;;;;;;;;5090475;28;20044;-84
2022/06/08 13:52:43;;;;;;;7.75;2.78;;;;;;;;;;5091370;28;20044;-84
2022/06/08 13:55:17;;;;;;;9.80;3.42;;;;;;;;;;5090747;28;20101;-83
2022/06/08 13:57:44;;;;;;;10.73;3.30;;;;;;;;;;5091560;28;20040;-83
2022/06/08 14:00:10;;;;;;;8.77;3.30;;;;;;;;;;5090415;28;20048;-83
2022/06/08 14:02:39;;;;;;;7.93;3.47;;;;;;;;;;5074928;28;20040;-83
2022/06/08 14:05:06;;;;;;;10.90;4.05;;;;;;;;;;5090315;28;20055;-83
2022/06/08 14:13:00;;;;;;;11.20;4.18;;;;;;;;;;5087639;28;20048;-83
2022/06/08 14:15:49;;;;;;;8.43;4.43;;;;;;;;;;5011349;28;20523;-83
2022/06/08 14:18:20;;;;;;;8.48;4.57;;;;;;;;;;4994950;28;20400;-84
2022/06/08 14:20:47;;;;;;;10.00;3.92;;;;;;;;;;4978915;28;20038;-83
2022/06/08 14:23:14;;;;;;;9.75;3.78;;;;;;;;;;4995303;28;20483;-82
2022/06/08 14:25:41;;;;;;;8.63;4.47;;;;;;;;;;5014705;28;20469;-83
2022/06/08 14:28:08;;;;;;;11.15;3.97;;;;;;;;;;5014718;28;20060;-83
2022/06/08 14:30:34;;;;;;;10.23;4.97;;;;;;;;;;5014352;28;20095;-82
2022/06/08 14:33:02;;;;;;;10.65;5.60;;;;;;;;;;5014449;28;20096;-83
2022/06/08 14:35:30;;;;;;;9.18;5.90;;;;;;;;;;5014438;28;20475;-82
2022/06/08 14:37:57;;;;;;;8.77;6.03;;;;;;;;;;5014560;28;20046;-82
2022/06/08 14:40:25;;;;;;;10.52;6.72;;;;;;;;;;5014556;28;20045;-82
2022/06/08 14:42:51;;;;;;;11.27;8.05;;;;;;;;;;5014419;28;20041;-82
2022/06/08 14:45:18;;;;;;;10.93;6.85;;;;;;;;;;5031903;28;20384;-83
2022/06/08 14:47:44;;;;;;;13.30;7.38;;;;;;;;;;5017972;28;20164;-83
2022/06/08 14:50:13;;;;;;;13.57;7.68;;;;;;;;;;5017999;28;20530;-83
2022/06/08 14:52:39;;;;;;;9.93;7.55;;;;;;;;;;5035840;28;20056;-82
2022/06/08 14:56:23;;;;;;;12.35;8.40;;;;;;;;;;5017574;28;20045;-82
2022/06/08 14:57:53;;;;;;;15.05;8.02;;;;;;;;;;5035400;28;20057;-82
2022/06/08 15:00:19;;;;;;;12.10;7.93;;;;;;;;;;5017573;28;20045;-83
2022/06/08 15:02:45;;;;;;;12.57;8.65;;;;;;;;;;5017627;28;20128;-82
2022/06/08 15:05:13;;;;;;;10.75;7.57;;;;;;;;;;5017716;28;20354;-82
2022/06/08 15:07:39;;;;;;;13.50;8.77;;;;;;;;;;5017858;28;20136;-82